TZL weather

Tuzla International Airport
Tuzla, Federacija Bosna i Hercegovina, Bosnia and Herzegovina

Public forecast

Using degrees Celsius for public forecast. Weather courtesy of forecast.io.

Current aviation weather report (METAR) for Tuzla International Airport

Retrieved 2020/03/30 06:00 UTC (10 minutes ago):

LQTZ 300600Z VRB01KT CAVOK 01/M01 Q1016

Aviation forecast (TAF) for Tuzla International Airport

Retrieved 2020/03/30 06:06 UTC (4 minutes ago):

TAF LQTZ 300500Z 3006/3106 30006KT CAVOK TX10/3013Z TN00/3105Z TEMPO 3010/3021 01010KT TEMPO 3021/3106 2000 -SN BR BKN005 OVC015